createdAt,value
2023-04-09T00:02:05.401Z,3.56
2023-04-09T00:04:32.762Z,3.60
2023-04-09T00:07:00.258Z,3.47
2023-04-09T00:09:27.572Z,3.47
2023-04-09T00:11:56.207Z,3.51
2023-04-09T00:14:23.486Z,3.38
2023-04-09T00:16:52.160Z,3.32
2023-04-09T00:22:17.842Z,3.35
2023-04-09T00:24:45.194Z,3.38
2023-04-09T00:27:14.034Z,3.28
2023-04-09T00:29:41.489Z,3.29
2023-04-09T00:32:10.296Z,3.19
2023-04-09T00:34:38.935Z,3.07
2023-04-09T00:37:06.437Z,3.16
2023-04-09T00:39:33.765Z,3.19
2023-04-09T00:42:02.655Z,3.19
2023-04-09T00:44:30.801Z,3.20
2023-04-09T00:46:58.085Z,3.12
2023-04-09T00:52:15.504Z,2.98
2023-04-09T00:54:42.809Z,2.80
2023-04-09T00:57:11.186Z,2.60
2023-04-09T00:59:38.574Z,2.56
2023-04-09T01:02:06.412Z,2.45
2023-04-09T01:04:33.792Z,2.19
2023-04-09T01:07:03.350Z,2.31
2023-04-09T01:09:34.160Z,2.46
2023-04-09T01:12:03.768Z,2.49
2023-04-09T01:14:33.541Z,2.47
2023-04-09T01:17:05.222Z,2.45
2023-04-09T01:19:38.655Z,2.48
2023-04-09T01:22:06.438Z,2.46
2023-04-09T01:24:38.060Z,2.45
2023-04-09T01:30:05.519Z,2.50
2023-04-09T01:32:33.579Z,2.46
2023-04-09T01:35:01.034Z,2.42
2023-04-09T01:37:28.384Z,2.29
2023-04-09T01:42:53.803Z,2.40
2023-04-09T01:45:22.578Z,2.41
2023-04-09T01:47:50.067Z,2.14
2023-04-09T01:50:17.590Z,2.14
2023-04-09T01:55:34.058Z,1.79
2023-04-09T01:58:01.367Z,1.86
2023-04-09T02:00:32.025Z,2.00
2023-04-09T02:03:00.557Z,2.09
2023-04-09T02:05:28.683Z,2.08
2023-04-09T02:07:56.870Z,2.09
2023-04-09T02:10:24.689Z,1.76
2023-04-09T02:12:52.388Z,1.80
2023-04-09T02:15:20.208Z,2.04
2023-04-09T02:20:47.074Z,2.02
2023-04-09T02:23:14.363Z,2.03
2023-04-09T02:28:30.765Z,1.99
2023-04-09T02:30:58.062Z,1.97
2023-04-09T02:33:26.726Z,1.92
2023-04-09T02:35:54.791Z,1.81
2023-04-09T02:38:22.196Z,1.57
2023-04-09T02:40:49.554Z,1.46
2023-04-09T02:46:05.891Z,1.59
2023-04-09T02:48:35.981Z,1.58
2023-04-09T02:51:05.784Z,1.76
2023-04-09T02:56:21.769Z,1.89
2023-04-09T02:58:53.796Z,1.94
2023-04-09T03:01:21.344Z,2.18
2023-04-09T03:03:50.287Z,2.23
2023-04-09T03:09:16.774Z,1.88
2023-04-09T03:11:44.137Z,1.92
2023-04-09T03:14:11.458Z,2.00
2023-04-09T03:16:38.755Z,2.17
2023-04-09T03:19:07.394Z,2.22
2023-04-09T03:21:37.559Z,2.48
2023-04-09T03:24:06.234Z,2.55
2023-04-09T03:26:36.263Z,2.55
2023-04-09T03:29:06.131Z,2.77
2023-04-09T03:31:33.803Z,2.81
2023-04-09T03:34:01.142Z,2.75
2023-04-09T03:36:31.500Z,2.73
2023-04-09T03:39:10.464Z,2.66
2023-04-09T03:41:42.230Z,2.70
2023-04-09T03:44:13.778Z,2.67
2023-04-09T03:47:19.037Z,2.62
2023-04-09T03:49:46.425Z,2.78
2023-04-09T03:52:22.876Z,2.98
2023-04-09T03:54:58.774Z,2.88
2023-04-09T03:57:27.198Z,3.16
2023-04-09T03:59:55.766Z,3.42
2023-04-09T04:02:26.686Z,3.66
2023-04-09T04:05:01.705Z,3.89
2023-04-09T04:07:35.277Z,3.84
2023-04-09T04:10:09.168Z,3.96
2023-04-09T04:12:36.513Z,4.09
2023-04-09T04:15:08.418Z,4.01
2023-04-09T04:17:44.722Z,4.11
2023-04-09T04:20:21.005Z,4.07
2023-04-09T04:23:07.131Z,3.76
2023-04-09T04:28:35.778Z,3.55
2023-04-09T04:34:02.794Z,3.27
2023-04-09T04:36:30.698Z,3.34
2023-04-09T04:38:59.361Z,3.54
2023-04-09T04:41:32.116Z,3.25
2023-04-09T04:44:22.360Z,3.18
2023-04-09T04:46:55.252Z,3.25
2023-04-09T04:49:22.693Z,3.23
2023-04-09T04:51:49.997Z,3.29
2023-04-09T04:54:19.142Z,3.13
2023-04-09T04:56:52.584Z,3.23
2023-04-09T04:59:38.514Z,3.11
2023-04-09T05:02:07.003Z,3.19
2023-04-09T05:04:44.238Z,3.22
2023-04-09T05:07:14.592Z,3.35
2023-04-09T05:09:50.515Z,3.38
2023-04-09T05:12:18.034Z,3.17
2023-04-09T05:14:49.202Z,3.34
2023-04-09T05:17:16.821Z,3.48
2023-04-09T05:19:46.190Z,3.45
2023-04-09T05:22:13.705Z,3.55
2023-04-09T05:24:41.045Z,3.67
2023-04-09T05:27:10.235Z,3.73
2023-04-09T05:29:37.525Z,3.85
2023-04-09T05:34:56.764Z,3.90
2023-04-09T05:37:25.594Z,4.18
2023-04-09T05:39:53.992Z,4.15
2023-04-09T05:42:22.646Z,4.27
2023-04-09T05:45:13.129Z,4.28
2023-04-09T05:47:48.060Z,4.50
2023-04-09T05:50:19.722Z,4.55
2023-04-09T05:52:49.104Z,4.78
2023-04-09T05:55:17.046Z,4.88
2023-04-09T05:57:50.011Z,5.08
2023-04-09T06:00:18.245Z,5.17
2023-04-09T06:02:46.926Z,5.34
2023-04-09T06:08:13.985Z,5.59
2023-04-09T06:10:41.532Z,5.69
2023-04-09T06:13:10.397Z,5.32
2023-04-09T06:15:38.506Z,5.32
2023-04-09T06:21:05.162Z,5.08
2023-04-09T06:23:32.869Z,5.33
2023-04-09T06:26:00.270Z,5.28
2023-04-09T06:28:28.871Z,4.81
2023-04-09T06:30:56.491Z,4.47
2023-04-09T06:33:24.264Z,4.40
2023-04-09T06:35:51.701Z,4.60
2023-04-09T06:38:19.018Z,4.70
2023-04-09T06:40:46.309Z,4.86
2023-04-09T06:43:13.623Z,4.70
2023-04-09T06:45:54.390Z,4.59
2023-04-09T06:48:21.710Z,4.64
2023-04-09T06:53:48.004Z,5.12
2023-04-09T06:56:15.582Z,5.35
2023-04-09T06:58:42.905Z,5.39
2023-04-09T07:01:13.100Z,5.88
2023-04-09T07:03:40.706Z,6.03
2023-04-09T07:09:06.750Z,6.49
2023-04-09T07:11:34.058Z,6.56
2023-04-09T07:19:31.190Z,6.54
2023-04-09T07:21:58.479Z,6.45
2023-04-09T07:24:25.826Z,6.40
2023-04-09T07:26:53.365Z,6.31
2023-04-09T07:29:22.218Z,5.97
2023-04-09T07:31:49.731Z,5.91
2023-04-09T07:34:17.062Z,5.65
2023-04-09T07:36:45.748Z,6.34
2023-04-09T07:39:13.059Z,6.36
2023-04-09T07:56:44.048Z,7.67
2023-04-09T07:59:11.818Z,7.32
2023-04-09T08:01:39.281Z,7.21
2023-04-09T08:04:07.533Z,7.19
2023-04-09T08:06:35.971Z,7.25
2023-04-09T08:09:03.586Z,7.24
2023-04-09T08:11:31.114Z,7.14
2023-04-09T08:14:02.002Z,7.15
2023-04-09T08:19:19.977Z,7.31
2023-04-09T08:21:48.733Z,7.34
2023-04-09T08:24:16.711Z,7.34
2023-04-09T08:26:44.377Z,7.37
2023-04-09T08:29:13.930Z,7.41
2023-04-09T08:31:41.793Z,7.40
2023-04-09T08:34:09.460Z,7.48
2023-04-09T08:36:37.076Z,7.42
2023-04-09T08:39:04.728Z,7.36
2023-04-09T08:41:32.342Z,7.56
2023-04-09T08:44:00.695Z,7.60
2023-04-09T08:49:24.261Z,7.65
2023-04-09T08:51:51.708Z,7.61
2023-04-09T08:54:20.071Z,7.63
2023-04-09T08:56:47.803Z,7.59
2023-04-09T08:59:17.954Z,7.60
2023-04-09T09:01:46.631Z,7.67
2023-04-09T09:04:14.185Z,7.66
2023-04-09T09:06:43.022Z,7.68
2023-04-09T09:09:12.003Z,7.71
2023-04-09T09:11:40.789Z,7.75
2023-04-09T09:14:10.108Z,7.80
2023-04-09T09:16:42.715Z,7.82
2023-04-09T09:19:10.472Z,7.84
2023-04-09T09:21:38.566Z,7.89
2023-04-09T09:24:17.592Z,7.91
2023-04-09T09:26:45.200Z,7.95
2023-04-09T09:29:12.669Z,7.99
2023-04-09T09:31:47.261Z,8.03
2023-04-09T09:34:15.868Z,8.02
2023-04-09T09:36:43.570Z,8.10
2023-04-09T09:39:13.267Z,8.14
2023-04-09T09:41:41.614Z,8.19
2023-04-09T09:44:10.308Z,8.20
2023-04-09T09:47:03.960Z,8.24
2023-04-09T09:49:31.556Z,8.29
2023-04-09T09:52:02.661Z,8.31
2023-04-09T09:57:40.314Z,8.40
2023-04-09T10:00:09.341Z,8.44
2023-04-09T10:02:41.881Z,8.51
2023-04-09T10:05:09.930Z,8.53
2023-04-09T10:07:38.455Z,8.54
2023-04-09T10:10:08.980Z,8.59
2023-04-09T10:12:36.433Z,8.61
2023-04-09T10:18:05.075Z,8.69
2023-04-09T10:23:34.012Z,8.76
2023-04-09T10:26:03.044Z,8.81
2023-04-09T10:28:31.006Z,8.85
2023-04-09T10:30:58.752Z,8.88
2023-04-09T10:36:27.714Z,8.98
2023-04-09T10:38:55.187Z,9.01
2023-04-09T10:41:28.446Z,9.05
2023-04-09T10:43:55.875Z,9.08
2023-04-09T10:46:27.515Z,9.13
2023-04-09T10:49:11.678Z,9.17
2023-04-09T10:51:39.432Z,9.19
2023-04-09T10:54:07.064Z,9.23
2023-04-09T11:01:54.708Z,23.29
2023-04-09T11:05:29.117Z,23.03
2023-04-09T11:10:36.755Z,24.18
2023-04-09T11:18:18.115Z,24.26
2023-04-09T11:24:19.679Z,19.94
2023-04-09T11:31:40.370Z,18.13
2023-04-09T11:34:11.115Z,17.99
2023-04-09T11:36:38.822Z,17.99
2023-04-09T11:39:06.376Z,18.04
2023-04-09T11:41:34.718Z,18.05
2023-04-09T11:44:03.790Z,17.81
2023-04-09T11:46:31.481Z,17.62
2023-04-09T11:49:00.394Z,17.36
2023-04-09T11:51:28.564Z,16.87
2023-04-09T11:53:56.029Z,16.53
2023-04-09T11:56:23.706Z,16.30
2023-04-09T11:58:51.404Z,15.67
2023-04-09T12:01:19.092Z,15.52
2023-04-09T12:06:46.330Z,15.52
2023-04-09T12:09:14.198Z,15.59
2023-04-09T12:11:44.925Z,15.69
2023-04-09T12:14:13.833Z,15.88
2023-04-09T12:16:43.774Z,16.02
2023-04-09T12:22:15.336Z,16.12
2023-04-09T12:24:42.818Z,16.15
2023-04-09T12:27:10.876Z,16.04
2023-04-09T12:29:38.310Z,15.97
2023-04-09T12:32:06.331Z,16.01
2023-04-09T12:34:33.809Z,16.00
2023-04-09T12:37:01.483Z,15.87
2023-04-09T12:39:31.699Z,15.77
2023-04-09T12:42:01.069Z,15.85
2023-04-09T12:44:28.818Z,15.72
2023-04-09T12:46:56.265Z,15.84
2023-04-09T12:49:47.667Z,15.96
2023-04-09T12:52:15.497Z,16.13
2023-04-09T12:54:44.845Z,16.20
2023-04-09T12:57:12.268Z,16.27
2023-04-09T12:59:39.672Z,16.31
2023-04-09T13:02:07.715Z,16.48
2023-04-09T13:04:35.672Z,16.65
2023-04-09T13:07:03.266Z,16.65
2023-04-09T13:09:30.738Z,16.73
2023-04-09T13:11:59.492Z,16.75
2023-04-09T13:14:26.905Z,16.97
2023-04-09T13:16:54.457Z,17.13
2023-04-09T13:19:22.457Z,17.13
2023-04-09T13:21:49.851Z,17.11
2023-04-09T13:24:17.318Z,17.42
2023-04-09T13:30:25.665Z,20.11
2023-04-09T13:32:53.269Z,20.67
2023-04-09T13:36:39.103Z,20.48
2023-04-09T13:39:31.767Z,20.23
2023-04-09T13:42:49.860Z,19.55
2023-04-09T13:45:42.770Z,19.02
2023-04-09T13:48:35.839Z,19.05
2023-04-09T13:51:29.546Z,19.12
2023-04-09T13:54:23.318Z,19.50
2023-04-09T13:57:18.861Z,19.87
2023-04-09T14:00:12.611Z,19.82
2023-04-09T14:03:06.002Z,20.25
2023-04-09T14:05:58.595Z,20.41
2023-04-09T14:08:52.270Z,19.92
2023-04-09T14:11:46.146Z,19.32
2023-04-09T14:14:38.581Z,18.73
2023-04-09T14:17:31.850Z,18.24
2023-04-09T14:20:24.538Z,18.01
2023-04-09T14:23:27.090Z,17.67
2023-04-09T14:26:21.650Z,17.61
2023-04-09T14:29:18.077Z,17.61
2023-04-09T14:32:10.745Z,17.92
2023-04-09T14:35:03.677Z,18.13
2023-04-09T14:37:56.713Z,18.45
2023-04-09T14:44:20.185Z,18.86
2023-04-09T14:47:12.499Z,18.63
2023-04-09T14:50:04.980Z,18.29
2023-04-09T14:52:57.547Z,18.01
2023-04-09T14:55:50.975Z,17.84
2023-04-09T14:58:43.669Z,17.57
2023-04-09T15:01:38.207Z,17.17
2023-04-09T15:04:30.631Z,16.98
2023-04-09T15:07:25.166Z,16.81
2023-04-09T15:10:18.063Z,16.75
2023-04-09T15:13:10.787Z,16.81
2023-04-09T15:16:03.735Z,16.77
2023-04-09T15:18:59.844Z,16.74
2023-04-09T15:21:52.890Z,16.41
2023-04-09T15:24:45.547Z,16.34
2023-04-09T15:30:51.013Z,16.15
2023-04-09T15:36:58.089Z,16.17
2023-04-09T15:39:52.311Z,16.17
2023-04-09T15:42:39.050Z,16.24
2023-04-09T15:45:31.843Z,16.18
2023-04-09T15:48:24.870Z,16.00
2023-04-09T15:54:38.033Z,15.60
2023-04-09T15:57:30.679Z,15.40
2023-04-09T16:00:24.110Z,15.31
2023-04-09T16:03:16.732Z,15.29
2023-04-09T16:06:13.034Z,15.16
2023-04-09T16:12:19.322Z,15.02
2023-04-09T16:15:11.871Z,14.94
2023-04-09T16:18:11.569Z,14.86
2023-04-09T16:21:05.687Z,14.95
2023-04-09T16:24:15.916Z,15.13
2023-04-09T16:27:05.743Z,15.85
2023-04-09T16:33:20.997Z,16.95
2023-04-09T16:39:38.798Z,16.01
2023-04-09T16:42:32.678Z,15.80
2023-04-09T16:45:25.518Z,15.67
2023-04-09T16:48:18.039Z,15.54
2023-04-09T16:51:11.854Z,15.41
2023-04-09T16:54:04.523Z,15.20
2023-04-09T16:56:57.137Z,15.06
2023-04-09T16:59:49.601Z,15.03
2023-04-09T17:02:42.712Z,14.74
2023-04-09T17:05:36.024Z,14.31
2023-04-09T17:11:38.323Z,13.33
2023-04-09T17:14:31.573Z,12.79
2023-04-09T17:17:24.775Z,12.38
2023-04-09T17:20:17.873Z,12.00
2023-04-09T17:23:26.018Z,11.60
2023-04-09T17:26:19.286Z,11.32
2023-04-09T17:29:11.561Z,11.15
2023-04-09T17:32:04.744Z,10.91
2023-04-09T17:35:07.401Z,10.77
2023-04-09T17:37:59.706Z,10.69
2023-04-09T17:40:54.098Z,10.57
2023-04-09T17:43:47.778Z,10.43
2023-04-09T17:46:40.788Z,10.24
2023-04-09T17:49:34.024Z,9.97
2023-04-09T17:52:26.613Z,9.80
2023-04-09T17:55:19.908Z,9.63
2023-04-09T18:01:35.065Z,9.35
2023-04-09T18:04:28.024Z,9.13
2023-04-09T18:07:21.434Z,8.89
2023-04-09T18:10:13.654Z,8.66
2023-04-09T18:13:06.969Z,8.46
2023-04-09T18:15:59.708Z,8.22
2023-04-09T18:18:47.794Z,7.97
2023-04-09T18:21:40.959Z,7.77
2023-04-09T18:24:34.432Z,7.61
2023-04-09T18:27:26.781Z,7.50
2023-04-09T18:30:19.437Z,7.43
2023-04-09T18:33:15.657Z,7.26
2023-04-09T18:36:10.200Z,7.13
2023-04-09T18:42:51.610Z,6.84
2023-04-09T18:45:56.088Z,6.71
2023-04-09T18:48:48.806Z,6.64
2023-04-09T18:55:04.557Z,6.38
2023-04-09T19:01:43.670Z,6.22
2023-04-09T19:04:39.819Z,6.13
2023-04-09T19:07:33.588Z,6.09
2023-04-09T19:10:28.111Z,6.07
2023-04-09T19:13:20.702Z,5.97
2023-04-09T19:16:22.459Z,5.91
2023-04-09T19:19:14.583Z,5.87
2023-04-09T19:22:07.846Z,5.80
2023-04-09T19:25:00.643Z,5.72
2023-04-09T19:27:56.428Z,5.69
2023-04-09T19:30:50.622Z,5.64
2023-04-09T19:36:56.319Z,5.39
2023-04-09T19:43:06.340Z,5.16
2023-04-09T19:49:15.633Z,5.07
2023-04-09T19:52:09.190Z,5.06
2023-04-09T19:54:57.698Z,5.06
2023-04-09T19:57:50.646Z,4.94
2023-04-09T20:00:45.049Z,4.87
2023-04-09T20:03:37.747Z,4.90
2023-04-09T20:06:30.704Z,4.85
2023-04-09T20:09:26.275Z,4.86
2023-04-09T20:12:55.926Z,4.88
2023-04-09T20:15:52.633Z,4.91
2023-04-09T20:19:01.216Z,4.95
2023-04-09T20:21:52.722Z,4.96
2023-04-09T20:28:09.698Z,4.83
2023-04-09T20:34:29.182Z,4.63
2023-04-09T20:40:47.008Z,4.42
2023-04-09T20:46:48.498Z,4.27
2023-04-09T20:52:59.315Z,4.14
2023-04-09T20:59:04.037Z,4.05
2023-04-09T21:05:22.411Z,4.08
2023-04-09T21:08:16.923Z,4.10
2023-04-09T21:11:09.980Z,4.11
2023-04-09T21:14:06.978Z,4.06
2023-04-09T21:16:59.732Z,3.95
2023-04-09T21:19:53.451Z,3.91
2023-04-09T21:22:46.098Z,3.95
2023-04-09T21:25:40.814Z,4.13
2023-04-09T21:28:33.374Z,4.14
2023-04-09T21:31:25.903Z,4.05
2023-04-09T21:34:18.453Z,3.93
2023-04-09T21:37:11.159Z,3.86
2023-04-09T21:43:17.376Z,3.72
2023-04-09T21:46:09.785Z,3.61
2023-04-09T21:52:32.194Z,3.42
2023-04-09T21:55:42.109Z,3.46
2023-04-09T21:58:32.906Z,3.49
2023-04-09T22:05:12.083Z,3.50
2023-04-09T22:08:04.378Z,3.51
2023-04-09T22:10:56.826Z,3.53
2023-04-09T22:13:51.437Z,3.53
2023-04-09T22:16:47.516Z,3.41
2023-04-09T22:19:39.457Z,3.62
2023-04-09T22:26:00.003Z,3.71
2023-04-09T22:28:54.119Z,3.63
2023-04-09T22:31:46.735Z,3.63
2023-04-09T22:34:44.822Z,3.63
2023-04-09T22:37:37.590Z,3.73
2023-04-09T22:44:01.135Z,3.67
2023-04-09T22:46:53.853Z,3.58
2023-04-09T22:49:46.815Z,3.41
2023-04-09T22:52:39.833Z,3.29
2023-04-09T22:55:32.454Z,3.24
2023-04-09T22:58:24.572Z,3.11
2023-04-09T23:01:54.028Z,3.01
2023-04-09T23:04:47.941Z,3.03
2023-04-09T23:07:42.620Z,2.98
2023-04-09T23:14:11.502Z,2.78
2023-04-09T23:17:03.600Z,2.78
2023-04-09T23:19:58.260Z,2.78
2023-04-09T23:22:51.099Z,2.76
2023-04-09T23:25:46.207Z,2.73
2023-04-09T23:28:38.847Z,2.74
2023-04-09T23:31:31.956Z,2.80
2023-04-09T23:34:24.689Z,2.91
2023-04-09T23:37:12.153Z,2.95
2023-04-09T23:40:15.147Z,2.93
2023-04-09T23:43:02.093Z,2.99
2023-04-09T23:48:59.006Z,3.07
2023-04-09T23:55:00.402Z,3.06
